createdAt,value
2022-08-31T00:03:57.621Z,16671.27734
2022-08-31T00:18:59.862Z,15487.74219
2022-08-31T00:34:02.089Z,13727.46387
2022-08-31T00:49:04.327Z,3068.85669
2022-08-31T01:04:06.501Z,677.55237
2022-08-31T01:19:08.844Z,579.65143
2022-08-31T01:34:11.098Z,491.44357
2022-08-31T01:49:13.491Z,410.9903
2022-08-31T02:04:15.699Z,315.02792
2022-08-31T02:19:17.925Z,192.89403
2022-08-31T02:34:20.113Z,74.63739
2022-08-31T02:49:22.357Z,17.4477
2022-08-31T03:04:26.517Z,0.96932
2022-08-31T03:19:28.738Z,0
2022-08-31T03:34:30.919Z,0
2022-08-31T03:49:33.128Z,0
2022-08-31T04:04:35.345Z,0
2022-08-31T04:19:37.570Z,0
2022-08-31T04:34:39.812Z,0
2022-08-31T04:49:42.178Z,0
2022-08-31T05:04:44.379Z,0
2022-08-31T05:19:46.941Z,0
2022-08-31T05:34:49.433Z,0
2022-08-31T05:49:51.648Z,0
2022-08-31T06:04:54.154Z,0
2022-08-31T06:19:56.396Z,0
2022-08-31T06:34:58.598Z,0
2022-08-31T06:50:00.794Z,0
2022-08-31T07:05:03.019Z,0
2022-08-31T07:20:05.194Z,0
2022-08-31T07:35:07.383Z,0
2022-08-31T07:50:09.565Z,0
2022-08-31T08:05:11.784Z,0
2022-08-31T08:20:14.148Z,0
2022-08-31T08:35:16.365Z,0
2022-08-31T08:50:18.539Z,0
2022-08-31T09:05:20.787Z,0
2022-08-31T09:20:22.960Z,0
2022-08-31T09:35:25.149Z,0
2022-08-31T09:50:27.384Z,0
2022-08-31T10:05:30.134Z,0
2022-08-31T10:20:32.369Z,0
2022-08-31T10:35:34.622Z,0
2022-08-31T10:50:36.991Z,0
2022-08-31T11:05:39.195Z,0
2022-08-31T11:20:41.397Z,0
2022-08-31T11:35:43.632Z,0
2022-08-31T11:50:45.835Z,0
2022-08-31T12:05:48.141Z,0
2022-08-31T12:20:50.443Z,0
2022-08-31T12:35:52.628Z,0.96932
2022-08-31T12:50:54.926Z,10.66248
2022-08-31T13:05:57.130Z,63.9749
2022-08-31T13:20:59.329Z,190.9554
2022-08-31T13:36:01.675Z,318.90521
2022-08-31T13:51:03.910Z,434.25391
2022-08-31T14:06:06.161Z,597.09912
2022-08-31T14:21:20.897Z,6464.37305
2022-08-31T14:36:24.059Z,1374.49109
2022-08-31T14:51:26.661Z,5628.82227
2022-08-31T15:06:28.894Z,29438.14844
2022-08-31T15:21:31.066Z,30943.49805
2022-08-31T15:36:33.379Z,12554.58984
2022-08-31T15:51:35.629Z,4184.54053
2022-08-31T16:06:37.855Z,3988.73828
2022-08-31T16:21:40.110Z,4529.61719
2022-08-31T16:36:42.299Z,4697.30859
2022-08-31T16:51:48.443Z,4446.25586
2022-08-31T17:06:50.917Z,4391.97412
2022-08-31T17:21:53.118Z,4675.01465
2022-08-31T17:36:55.295Z,4932.85303
2022-08-31T17:51:57.467Z,5507.65771
2022-08-31T18:07:00.859Z,6212.35107
2022-08-31T18:22:03.053Z,2729.59595
2022-08-31T18:37:05.391Z,2875.96265
2022-08-31T18:52:07.599Z,6842.40674
2022-08-31T19:07:09.829Z,7453.07617
2022-08-31T19:22:12.024Z,5953.54346
2022-08-31T19:37:14.258Z,3943.18042
2022-08-31T19:52:16.454Z,3561.26953
2022-08-31T20:07:18.620Z,6749.35254
2022-08-31T20:22:20.786Z,3648.50806
2022-08-31T20:37:23.044Z,3333.48022
2022-08-31T20:52:25.284Z,3551.57642
2022-08-31T21:07:27.479Z,2862.39233
2022-08-31T21:22:29.793Z,5092.79004
2022-08-31T21:37:32.118Z,4516.04639
2022-08-31T21:52:34.545Z,2252.69214
2022-08-31T22:07:36.769Z,2224.58179
2022-08-31T22:22:40.593Z,6842.40674
2022-08-31T22:37:42.903Z,4102.14844
2022-08-31T22:52:45.178Z,10858.28613
2022-08-31T23:07:47.414Z,13432.79102
2022-08-31T23:22:49.667Z,13697.41504
2022-08-31T23:37:51.889Z,14244.10938
2022-08-31T23:52:54.260Z,15348.16113
